sensor_id;sensor_type;location;lat;lon;timestamp;pressure;altitude;pressure_sealevel;temperature;humidity
39105;BME280;46464;51.154;13.812;2023-03-04T00:02:11;52737.22;;;-146.96;80.57
39105;BME280;46464;51.154;13.812;2023-03-04T00:04:37;52737.22;;;-146.96;80.46
39105;BME280;46464;51.154;13.812;2023-03-04T00:07:04;52729.09;;;-146.96;80.52
39105;BME280;46464;51.154;13.812;2023-03-04T00:09:30;52725.03;;;-146.96;80.37
39105;BME280;46464;51.154;13.812;2023-03-04T00:11:56;52706.72;;;-146.96;80.27
39105;BME280;46464;51.154;13.812;2023-03-04T00:14:23;52718.91;;;-146.96;80.22
39105;BME280;46464;51.154;13.812;2023-03-04T00:16:49;52700.59;;;-146.96;80.17
39105;BME280;46464;51.154;13.812;2023-03-04T00:19:16;52716.88;;;-146.96;80.28
39105;BME280;46464;51.154;13.812;2023-03-04T00:21:42;52672.13;;;-146.96;80.10
39105;BME280;46464;51.154;13.812;2023-03-04T00:24:08;52741.31;;;-146.96;79.95
39105;BME280;46464;51.154;13.812;2023-03-04T00:26:35;52729.09;;;-146.96;80.16
39105;BME280;46464;51.154;13.812;2023-03-04T00:29:01;52694.50;;;-146.96;80.19
39105;BME280;46464;51.154;13.812;2023-03-04T00:31:34;52743.34;;;-146.96;80.24
39105;BME280;46464;51.154;13.812;2023-03-04T00:34:00;52672.13;;;-146.96;80.27
39105;BME280;46464;51.154;13.812;2023-03-04T00:36:26;52741.31;;;-146.96;80.27
39105;BME280;46464;51.154;13.812;2023-03-04T00:38:53;52712.81;;;-146.96;80.32
39105;BME280;46464;51.154;13.812;2023-03-04T00:41:19;52704.66;;;-146.96;80.32
39105;BME280;46464;51.154;13.812;2023-03-04T00:43:46;52725.03;;;-146.96;80.39
39105;BME280;46464;51.154;13.812;2023-03-04T00:46:12;52745.38;;;-146.96;80.16
39105;BME280;46464;51.154;13.812;2023-03-04T00:48:38;52741.31;;;-146.96;80.19
39105;BME280;46464;51.154;13.812;2023-03-04T00:51:05;52727.06;;;-146.96;80.16
39105;BME280;46464;51.154;13.812;2023-03-04T00:53:31;52716.88;;;-146.96;80.10
39105;BME280;46464;51.154;13.812;2023-03-04T00:56:01;52725.03;;;-146.96;80.21
39105;BME280;46464;51.154;13.812;2023-03-04T00:58:27;52737.22;;;-146.96;80.38
39105;BME280;46464;51.154;13.812;2023-03-04T01:00:53;52718.91;;;-146.96;80.06
39105;BME280;46464;51.154;13.812;2023-03-04T01:03:20;52712.81;;;-146.96;80.22
39105;BME280;46464;51.154;13.812;2023-03-04T01:05:46;52731.13;;;-146.96;80.29
39105;BME280;46464;51.154;13.812;2023-03-04T01:08:13;52727.06;;;-146.96;80.21
39105;BME280;46464;51.154;13.812;2023-03-04T01:10:39;52743.34;;;-146.96;80.16
39105;BME280;46464;51.154;13.812;2023-03-04T01:13:05;52696.53;;;-146.96;80.29
39105;BME280;46464;51.154;13.812;2023-03-04T01:15:32;52714.84;;;-146.96;80.03
39105;BME280;46464;51.154;13.812;2023-03-04T01:17:58;52767.75;;;-146.96;80.11
39105;BME280;46464;51.154;13.812;2023-03-04T01:20:24;52704.66;;;-146.96;80.21
39105;BME280;46464;51.154;13.812;2023-03-04T01:22:51;52755.53;;;-146.96;80.27
39105;BME280;46464;51.154;13.812;2023-03-04T01:25:17;52763.69;;;-146.96;80.25
39105;BME280;46464;51.154;13.812;2023-03-04T01:27:44;52741.31;;;-146.96;80.20
39105;BME280;46464;51.154;13.812;2023-03-04T01:30:10;52731.13;;;-146.96;80.13
39105;BME280;46464;51.154;13.812;2023-03-04T01:32:37;52739.25;;;-146.96;80.21
39105;BME280;46464;51.154;13.812;2023-03-04T01:35:03;52698.56;;;-146.96;79.88
39105;BME280;46464;51.154;13.812;2023-03-04T01:37:30;52745.38;;;-146.96;79.97
39105;BME280;46464;51.154;13.812;2023-03-04T01:39:56;52718.91;;;-146.96;79.83
39105;BME280;46464;51.154;13.812;2023-03-04T01:42:23;52700.59;;;-146.96;79.78
39105;BME280;46464;51.154;13.812;2023-03-04T01:44:51;52706.72;;;-146.96;80.14
39105;BME280;46464;51.154;13.812;2023-03-04T01:47:18;52737.22;;;-146.96;80.13
39105;BME280;46464;51.154;13.812;2023-03-04T01:49:46;52714.84;;;-146.96;80.06
39105;BME280;46464;51.154;13.812;2023-03-04T01:52:16;52720.94;;;-146.96;79.96
39105;BME280;46464;51.154;13.812;2023-03-04T01:54:42;52694.50;;;-146.96;80.11
39105;BME280;46464;51.154;13.812;2023-03-04T01:57:16;52716.88;;;-146.96;80.13
39105;BME280;46464;51.154;13.812;2023-03-04T01:59:42;52710.78;;;-146.96;79.86
39105;BME280;46464;51.154;13.812;2023-03-04T02:02:09;52706.72;;;-146.96;79.88
39105;BME280;46464;51.154;13.812;2023-03-04T02:04:36;52714.84;;;-146.96;79.88
39105;BME280;46464;51.154;13.812;2023-03-04T02:07:03;52708.75;;;-146.96;79.74
39105;BME280;46464;51.154;13.812;2023-03-04T02:09:29;52688.41;;;-146.96;79.51
39105;BME280;46464;51.154;13.812;2023-03-04T02:11:56;52716.88;;;-146.96;79.61
39105;BME280;46464;51.154;13.812;2023-03-04T02:14:23;52729.09;;;-146.96;79.40
39105;BME280;46464;51.154;13.812;2023-03-04T02:16:49;52712.81;;;-146.96;79.60
39105;BME280;46464;51.154;13.812;2023-03-04T02:21:45;52741.31;;;-146.96;79.39
39105;BME280;46464;51.154;13.812;2023-03-04T02:24:13;52688.41;;;-146.96;79.50
39105;BME280;46464;51.154;13.812;2023-03-04T02:26:41;52729.09;;;-146.96;79.27
39105;BME280;46464;51.154;13.812;2023-03-04T02:29:10;52700.59;;;-146.96;79.32
39105;BME280;46464;51.154;13.812;2023-03-04T02:31:39;52725.03;;;-146.96;79.31
39105;BME280;46464;51.154;13.812;2023-03-04T02:34:09;52720.94;;;-146.96;79.41
39105;BME280;46464;51.154;13.812;2023-03-04T02:36:36;52733.16;;;-146.96;79.44
39105;BME280;46464;51.154;13.812;2023-03-04T02:39:04;52720.94;;;-146.96;79.14
39105;BME280;46464;51.154;13.812;2023-03-04T02:41:32;52737.22;;;-146.96;79.46
39105;BME280;46464;51.154;13.812;2023-03-04T02:43:58;52731.13;;;-146.96;79.39
39105;BME280;46464;51.154;13.812;2023-03-04T02:46:24;52718.91;;;-146.96;79.29
39105;BME280;46464;51.154;13.812;2023-03-04T02:48:51;52696.53;;;-146.96;79.28
39105;BME280;46464;51.154;13.812;2023-03-04T02:51:18;52678.22;;;-146.96;79.11
39105;BME280;46464;51.154;13.812;2023-03-04T02:53:44;52700.59;;;-146.96;79.15
39105;BME280;46464;51.154;13.812;2023-03-04T02:56:11;52686.34;;;-146.96;78.95
39105;BME280;46464;51.154;13.812;2023-03-04T02:58:37;52745.38;;;-146.96;79.18
39105;BME280;46464;51.154;13.812;2023-03-04T03:01:06;52725.03;;;-146.96;79.27
39105;BME280;46464;51.154;13.812;2023-03-04T03:03:33;52745.38;;;-146.96;78.97
39105;BME280;46464;51.154;13.812;2023-03-04T03:05:59;52702.63;;;-146.96;79.14
39105;BME280;46464;51.154;13.812;2023-03-04T03:08:25;52718.91;;;-146.96;79.18
39105;BME280;46464;51.154;13.812;2023-03-04T03:10:55;52723.00;;;-146.96;79.29
39105;BME280;46464;51.154;13.812;2023-03-04T03:13:21;52712.81;;;-146.96;79.11
39105;BME280;46464;51.154;13.812;2023-03-04T03:15:47;52731.13;;;-146.96;78.86
39105;BME280;46464;51.154;13.812;2023-03-04T03:18:15;52700.59;;;-146.96;79.42
39105;BME280;46464;51.154;13.812;2023-03-04T03:20:41;52725.03;;;-146.96;79.38
39105;BME280;46464;51.154;13.812;2023-03-04T03:23:08;52755.53;;;-146.96;79.35
39105;BME280;46464;51.154;13.812;2023-03-04T03:25:37;52710.78;;;-146.96;79.37
39105;BME280;46464;51.154;13.812;2023-03-04T03:28:04;52714.84;;;-146.96;79.33
39105;BME280;46464;51.154;13.812;2023-03-04T03:30:30;52716.88;;;-146.96;79.20
39105;BME280;46464;51.154;13.812;2023-03-04T03:32:56;52729.09;;;-146.96;79.18
39105;BME280;46464;51.154;13.812;2023-03-04T03:35:25;52743.34;;;-146.96;79.36
39105;BME280;46464;51.154;13.812;2023-03-04T03:37:51;52712.81;;;-146.96;79.48
39105;BME280;46464;51.154;13.812;2023-03-04T03:40:18;52692.47;;;-146.96;79.50
39105;BME280;46464;51.154;13.812;2023-03-04T03:42:44;52706.72;;;-146.96;79.43
39105;BME280;46464;51.154;13.812;2023-03-04T03:45:11;52720.94;;;-146.96;79.36
39105;BME280;46464;51.154;13.812;2023-03-04T03:47:37;52735.19;;;-146.96;79.55
39105;BME280;46464;51.154;13.812;2023-03-04T03:50:04;52704.66;;;-146.96;79.51
39105;BME280;46464;51.154;13.812;2023-03-04T03:52:30;52739.25;;;-146.96;79.62
39105;BME280;46464;51.154;13.812;2023-03-04T03:54:57;52714.84;;;-146.96;79.46
39105;BME280;46464;51.154;13.812;2023-03-04T03:57:27;52716.88;;;-146.96;79.54
39105;BME280;46464;51.154;13.812;2023-03-04T03:59:54;52692.47;;;-146.96;79.72
39105;BME280;46464;51.154;13.812;2023-03-04T04:02:21;52700.59;;;-146.96;79.63
39105;BME280;46464;51.154;13.812;2023-03-04T04:04:48;52753.50;;;-146.96;79.44
39105;BME280;46464;51.154;13.812;2023-03-04T04:07:14;52731.13;;;-146.96;79.44
39105;BME280;46464;51.154;13.812;2023-03-04T04:09:41;52771.81;;;-146.96;79.55
39105;BME280;46464;51.154;13.812;2023-03-04T04:12:07;52735.19;;;-146.96;79.79
39105;BME280;46464;51.154;13.812;2023-03-04T04:14:35;52741.31;;;-146.96;79.66
39105;BME280;46464;51.154;13.812;2023-03-04T04:17:02;52733.16;;;-146.96;79.40
39105;BME280;46464;51.154;13.812;2023-03-04T04:19:28;52729.09;;;-146.96;79.49
39105;BME280;46464;51.154;13.812;2023-03-04T04:21:54;52704.66;;;-146.96;79.53
39105;BME280;46464;51.154;13.812;2023-03-04T04:24:21;52706.72;;;-146.96;79.55
39105;BME280;46464;51.154;13.812;2023-03-04T04:26:48;52714.84;;;-146.96;79.10
39105;BME280;46464;51.154;13.812;2023-03-04T04:29:14;52708.75;;;-146.96;79.07
39105;BME280;46464;51.154;13.812;2023-03-04T04:31:41;52735.19;;;-146.96;78.97
39105;BME280;46464;51.154;13.812;2023-03-04T04:34:08;52741.31;;;-146.96;79.14
39105;BME280;46464;51.154;13.812;2023-03-04T04:36:34;52702.63;;;-146.96;78.82
39105;BME280;46464;51.154;13.812;2023-03-04T04:39:00;52700.59;;;-146.96;78.97
39105;BME280;46464;51.154;13.812;2023-03-04T04:41:28;52727.06;;;-146.96;78.67
39105;BME280;46464;51.154;13.812;2023-03-04T04:43:57;52718.91;;;-146.96;79.06
39105;BME280;46464;51.154;13.812;2023-03-04T04:46:23;52735.19;;;-146.96;79.02
39105;BME280;46464;51.154;13.812;2023-03-04T04:48:49;52704.66;;;-146.96;78.86
39105;BME280;46464;51.154;13.812;2023-03-04T04:51:16;52708.75;;;-146.96;78.77
39105;BME280;46464;51.154;13.812;2023-03-04T04:53:42;52720.94;;;-146.96;78.40
39105;BME280;46464;51.154;13.812;2023-03-04T04:56:11;52704.66;;;-146.96;78.60
39105;BME280;46464;51.154;13.812;2023-03-04T04:58:41;52696.53;;;-146.96;78.48
39105;BME280;46464;51.154;13.812;2023-03-04T05:01:08;52714.84;;;-146.96;78.55
39105;BME280;46464;51.154;13.812;2023-03-04T05:03:35;52727.06;;;-146.96;78.57
39105;BME280;46464;51.154;13.812;2023-03-04T05:06:02;52745.38;;;-146.96;78.59
39105;BME280;46464;51.154;13.812;2023-03-04T05:08:29;52700.59;;;-146.96;78.56
39105;BME280;46464;51.154;13.812;2023-03-04T05:10:55;52720.94;;;-146.96;78.87
39105;BME280;46464;51.154;13.812;2023-03-04T05:13:22;52706.72;;;-146.96;78.81
39105;BME280;46464;51.154;13.812;2023-03-04T05:15:52;52720.94;;;-146.96;78.67
39105;BME280;46464;51.154;13.812;2023-03-04T05:18:19;52737.22;;;-146.96;78.37
39105;BME280;46464;51.154;13.812;2023-03-04T05:20:56;52708.75;;;-146.96;78.20
39105;BME280;46464;51.154;13.812;2023-03-04T05:23:23;52702.63;;;-146.96;78.37
39105;BME280;46464;51.154;13.812;2023-03-04T05:25:50;52698.56;;;-146.96;78.31
39105;BME280;46464;51.154;13.812;2023-03-04T05:28:17;52688.41;;;-146.96;78.33
39105;BME280;46464;51.154;13.812;2023-03-04T05:30:43;52708.75;;;-146.96;78.34
39105;BME280;46464;51.154;13.812;2023-03-04T05:33:10;52747.41;;;-146.96;78.43
39105;BME280;46464;51.154;13.812;2023-03-04T05:35:37;52755.53;;;-146.96;78.29
39105;BME280;46464;51.154;13.812;2023-03-04T05:38:04;52696.53;;;-146.96;78.34
39105;BME280;46464;51.154;13.812;2023-03-04T05:40:31;52710.78;;;-146.96;78.11
39105;BME280;46464;51.154;13.812;2023-03-04T05:42:58;52696.53;;;-146.96;77.94
39105;BME280;46464;51.154;13.812;2023-03-04T05:45:25;52708.75;;;-146.96;78.12
39105;BME280;46464;51.154;13.812;2023-03-04T05:47:52;52708.75;;;-146.96;78.08
39105;BME280;46464;51.154;13.812;2023-03-04T05:50:19;52698.56;;;-146.96;77.91
39105;BME280;46464;51.154;13.812;2023-03-04T05:52:46;52710.78;;;-146.96;78.08
39105;BME280;46464;51.154;13.812;2023-03-04T05:55:13;52692.47;;;-146.96;77.94
39105;BME280;46464;51.154;13.812;2023-03-04T05:57:40;52690.44;;;-146.96;77.96
39105;BME280;46464;51.154;13.812;2023-03-04T06:00:07;52743.34;;;-146.96;77.93
39105;BME280;46464;51.154;13.812;2023-03-04T06:02:37;52729.09;;;-146.96;78.17
39105;BME280;46464;51.154;13.812;2023-03-04T06:05:03;52729.09;;;-146.96;78.37
39105;BME280;46464;51.154;13.812;2023-03-04T06:07:30;52712.81;;;-146.96;78.48
39105;BME280;46464;51.154;13.812;2023-03-04T06:09:56;52712.81;;;-146.96;78.70
39105;BME280;46464;51.154;13.812;2023-03-04T06:12:26;52700.59;;;-146.96;79.01
39105;BME280;46464;51.154;13.812;2023-03-04T06:14:54;52708.75;;;-146.96;79.17
39105;BME280;46464;51.154;13.812;2023-03-04T06:17:20;52714.84;;;-146.96;79.50
39105;BME280;46464;51.154;13.812;2023-03-04T06:19:47;52674.16;;;-146.96;79.58
39105;BME280;46464;51.154;13.812;2023-03-04T06:22:13;52696.53;;;-146.96;79.36
39105;BME280;46464;51.154;13.812;2023-03-04T06:24:40;52688.41;;;-146.96;79.36
39105;BME280;46464;51.154;13.812;2023-03-04T06:27:06;52727.06;;;-146.96;79.55
39105;BME280;46464;51.154;13.812;2023-03-04T06:29:32;52692.47;;;-146.96;79.68
39105;BME280;46464;51.154;13.812;2023-03-04T06:32:03;52702.63;;;-146.96;79.69
39105;BME280;46464;51.154;13.812;2023-03-04T06:34:30;52729.09;;;-146.96;79.77
39105;BME280;46464;51.154;13.812;2023-03-04T06:36:56;52700.59;;;-146.96;79.96
39105;BME280;46464;51.154;13.812;2023-03-04T06:39:23;52716.88;;;-146.96;80.08
39105;BME280;46464;51.154;13.812;2023-03-04T06:41:49;52688.41;;;-146.96;80.16
39105;BME280;46464;51.154;13.812;2023-03-04T06:44:15;52714.84;;;-146.96;80.37
39105;BME280;46464;51.154;13.812;2023-03-04T06:46:42;52698.56;;;-146.96;80.84
39105;BME280;46464;51.154;13.812;2023-03-04T06:49:09;52714.84;;;-146.96;80.94
39105;BME280;46464;51.154;13.812;2023-03-04T06:51:35;52714.84;;;-146.96;80.86
39105;BME280;46464;51.154;13.812;2023-03-04T06:54:02;52696.53;;;-146.96;81.19
39105;BME280;46464;51.154;13.812;2023-03-04T06:56:29;52680.25;;;-146.96;81.53
39105;BME280;46464;51.154;13.812;2023-03-04T06:58:55;52712.81;;;-146.96;81.48
39105;BME280;46464;51.154;13.812;2023-03-04T07:01:23;52720.94;;;-146.96;81.64
39105;BME280;46464;51.154;13.812;2023-03-04T07:03:49;52692.47;;;-146.96;81.67
39105;BME280;46464;51.154;13.812;2023-03-04T07:06:18;52696.53;;;-146.96;81.81
39105;BME280;46464;51.154;13.812;2023-03-04T07:08:45;52714.84;;;-146.96;81.59
39105;BME280;46464;51.154;13.812;2023-03-04T07:11:11;52727.06;;;-146.96;81.79
39105;BME280;46464;51.154;13.812;2023-03-04T07:13:38;52737.22;;;-146.96;82.23
39105;BME280;46464;51.154;13.812;2023-03-04T07:16:09;52708.75;;;-146.96;82.51
39105;BME280;46464;51.154;13.812;2023-03-04T07:18:36;52690.44;;;-146.96;82.52
39105;BME280;46464;51.154;13.812;2023-03-04T07:21:03;52698.56;;;-146.96;83.02
39105;BME280;46464;51.154;13.812;2023-03-04T07:23:29;52698.56;;;-146.96;83.26
39105;BME280;46464;51.154;13.812;2023-03-04T07:25:56;52710.78;;;-146.96;83.36
39105;BME280;46464;51.154;13.812;2023-03-04T07:28:25;52702.63;;;-146.96;83.39
39105;BME280;46464;51.154;13.812;2023-03-04T07:30:51;52698.56;;;-146.96;83.75
39105;BME280;46464;51.154;13.812;2023-03-04T07:33:17;52735.19;;;-146.96;84.19
39105;BME280;46464;51.154;13.812;2023-03-04T07:35:44;52674.16;;;-146.96;84.25
39105;BME280;46464;51.154;13.812;2023-03-04T07:38:10;52718.91;;;-146.96;83.65
39105;BME280;46464;51.154;13.812;2023-03-04T07:40:37;52676.19;;;-146.96;83.86
39105;BME280;46464;51.154;13.812;2023-03-04T07:43:03;52733.16;;;-146.96;84.14
39105;BME280;46464;51.154;13.812;2023-03-04T07:45:30;52698.56;;;-146.96;83.94
39105;BME280;46464;51.154;13.812;2023-03-04T07:47:57;52676.19;;;-146.96;84.08
39105;BME280;46464;51.154;13.812;2023-03-04T07:50:23;52716.88;;;-146.96;84.08
39105;BME280;46464;51.154;13.812;2023-03-04T07:52:50;52706.72;;;-146.96;83.95
39105;BME280;46464;51.154;13.812;2023-03-04T07:55:17;52712.81;;;-146.96;83.76
39105;BME280;46464;51.154;13.812;2023-03-04T07:57:44;52712.81;;;-146.96;83.62
39105;BME280;46464;51.154;13.812;2023-03-04T08:00:11;52696.53;;;-146.96;83.66
39105;BME280;46464;51.154;13.812;2023-03-04T08:02:38;52700.59;;;-146.96;83.89
39105;BME280;46464;51.154;13.812;2023-03-04T08:05:05;52686.34;;;-146.96;83.94
39105;BME280;46464;51.154;13.812;2023-03-04T08:07:31;52678.22;;;-146.96;83.65
39105;BME280;46464;51.154;13.812;2023-03-04T08:09:57;52718.91;;;-146.96;83.45
39105;BME280;46464;51.154;13.812;2023-03-04T08:12:24;52702.63;;;-146.96;83.62
39105;BME280;46464;51.154;13.812;2023-03-04T08:14:51;52684.31;;;-146.96;83.55
39105;BME280;46464;51.154;13.812;2023-03-04T08:17:17;52672.13;;;-146.96;83.81
39105;BME280;46464;51.154;13.812;2023-03-04T08:19:44;52698.56;;;-146.96;83.96
39105;BME280;46464;51.154;13.812;2023-03-04T08:22:10;52702.63;;;-146.96;84.03
39105;BME280;46464;51.154;13.812;2023-03-04T08:24:37;52692.47;;;-146.96;84.44
39105;BME280;46464;51.154;13.812;2023-03-04T08:27:03;52761.66;;;-146.96;83.91
39105;BME280;46464;51.154;13.812;2023-03-04T08:29:31;52680.25;;;-146.96;84.29
39105;BME280;46464;51.154;13.812;2023-03-04T08:32:17;52714.84;;;-146.96;84.52
39105;BME280;46464;51.154;13.812;2023-03-04T08:34:43;52716.88;;;-146.96;84.31
39105;BME280;46464;51.154;13.812;2023-03-04T08:37:10;52684.31;;;-146.96;84.38
39105;BME280;46464;51.154;13.812;2023-03-04T08:39:36;52708.75;;;-146.96;84.68
39105;BME280;46464;51.154;13.812;2023-03-04T08:42:03;52672.13;;;-146.96;85.40
39105;BME280;46464;51.154;13.812;2023-03-04T08:44:29;52686.34;;;-146.96;85.92
39105;BME280;46464;51.154;13.812;2023-03-04T08:46:56;52676.19;;;-146.96;86.54
39105;BME280;46464;51.154;13.812;2023-03-04T08:49:22;52712.81;;;-146.96;86.36
39105;BME280;46464;51.154;13.812;2023-03-04T08:51:48;52674.16;;;-146.96;86.64
39105;BME280;46464;51.154;13.812;2023-03-04T08:54:15;52663.97;;;-146.96;86.49
39105;BME280;46464;51.154;13.812;2023-03-04T08:56:41;52659.91;;;-146.96;86.92
39105;BME280;46464;51.154;13.812;2023-03-04T08:59:08;52611.06;;;-146.96;86.76
39105;BME280;46464;51.154;13.812;2023-03-04T09:01:34;52686.34;;;-146.96;86.93
39105;BME280;46464;51.154;13.812;2023-03-04T09:04:01;52672.13;;;-146.96;87.07
39105;BME280;46464;51.154;13.812;2023-03-04T09:06:27;52702.63;;;-146.96;87.17
39105;BME280;46464;51.154;13.812;2023-03-04T09:08:53;52659.91;;;-146.96;87.05
39105;BME280;46464;51.154;13.812;2023-03-04T09:11:20;52676.19;;;-146.96;86.81
39105;BME280;46464;51.154;13.812;2023-03-04T09:13:46;52688.41;;;-146.96;86.77
39105;BME280;46464;51.154;13.812;2023-03-04T09:16:13;52676.19;;;-146.96;87.48
39105;BME280;46464;51.154;13.812;2023-03-04T09:18:40;52694.50;;;-146.96;87.48
39105;BME280;46464;51.154;13.812;2023-03-04T09:21:07;52686.34;;;-146.96;87.42
39105;BME280;46464;51.154;13.812;2023-03-04T09:23:34;52698.56;;;-146.96;87.26
39105;BME280;46464;51.154;13.812;2023-03-04T09:26:00;52668.03;;;-146.96;87.15
39105;BME280;46464;51.154;13.812;2023-03-04T09:28:27;52690.44;;;-146.96;87.34
39105;BME280;46464;51.154;13.812;2023-03-04T09:30:53;52657.88;;;-146.96;87.09
39105;BME280;46464;51.154;13.812;2023-03-04T09:33:20;52653.81;;;-146.96;87.44
39105;BME280;46464;51.154;13.812;2023-03-04T09:35:46;52666.00;;;-146.96;87.23
39105;BME280;46464;51.154;13.812;2023-03-04T09:38:15;52680.25;;;-146.96;87.58
39105;BME280;46464;51.154;13.812;2023-03-04T09:40:42;52668.03;;;-146.96;87.52
39105;BME280;46464;51.154;13.812;2023-03-04T09:43:20;52692.47;;;-146.96;88.18
39105;BME280;46464;51.154;13.812;2023-03-04T09:45:52;52702.63;;;-146.96;88.15
39105;BME280;46464;51.154;13.812;2023-03-04T09:48:20;52663.97;;;-146.96;89.08
39105;BME280;46464;51.154;13.812;2023-03-04T09:50:55;52682.28;;;-146.96;89.55
39105;BME280;46464;51.154;13.812;2023-03-04T09:53:32;52680.25;;;-146.96;89.61
39105;BME280;46464;51.154;13.812;2023-03-04T09:56:00;52661.94;;;-146.96;89.34
39105;BME280;46464;51.154;13.812;2023-03-04T10:03:55;52657.88;;;-146.96;89.52
39105;BME280;46464;51.154;13.812;2023-03-04T10:06:23;52663.97;;;-146.96;88.68
39105;BME280;46464;51.154;13.812;2023-03-04T10:09:00;52661.94;;;-146.96;88.80
39105;BME280;46464;51.154;13.812;2023-03-04T10:11:39;52617.16;;;-146.96;89.67
39105;BME280;46464;51.154;13.812;2023-03-04T10:16:52;52670.06;;;-146.96;88.80
39105;BME280;46464;51.154;13.812;2023-03-04T10:19:27;52657.88;;;-146.96;89.01
39105;BME280;46464;51.154;13.812;2023-03-04T10:21:55;52645.66;;;-146.96;88.53
39105;BME280;46464;51.154;13.812;2023-03-04T10:24:23;52641.59;;;-146.96;89.28
39105;BME280;46464;51.154;13.812;2023-03-04T10:26:53;52633.44;;;-146.96;89.51
39105;BME280;46464;51.154;13.812;2023-03-04T10:29:22;52651.75;;;-146.96;89.33
39105;BME280;46464;51.154;13.812;2023-03-04T10:31:49;52688.41;;;-146.96;89.89
39105;BME280;46464;51.154;13.812;2023-03-04T10:34:16;52688.41;;;-146.96;89.41
39105;BME280;46464;51.154;13.812;2023-03-04T10:39:11;52659.91;;;-146.96;88.46
39105;BME280;46464;51.154;13.812;2023-03-04T10:41:43;52666.00;;;-146.96;89.19
39105;BME280;46464;51.154;13.812;2023-03-04T10:44:21;52653.81;;;-146.96;90.19
39105;BME280;46464;51.154;13.812;2023-03-04T10:46:48;52682.28;;;-146.96;90.06
39105;BME280;46464;51.154;13.812;2023-03-04T10:49:16;52655.84;;;-146.96;89.23
39105;BME280;46464;51.154;13.812;2023-03-04T10:51:44;52647.69;;;-146.96;89.28
39105;BME280;46464;51.154;13.812;2023-03-04T10:56:51;52647.69;;;-146.96;88.52
39105;BME280;46464;51.154;13.812;2023-03-04T11:01:53;52625.31;;;-146.96;88.32
39105;BME280;46464;51.154;13.812;2023-03-04T11:04:23;52666.00;;;-146.96;88.12
39105;BME280;46464;51.154;13.812;2023-03-04T11:06:51;52682.28;;;-146.96;88.32
39105;BME280;46464;51.154;13.812;2023-03-04T11:09:22;52674.16;;;-146.96;88.34
39105;BME280;46464;51.154;13.812;2023-03-04T11:11:49;52637.53;;;-146.96;88.35
39105;BME280;46464;51.154;13.812;2023-03-04T11:14:19;52666.00;;;-146.96;88.57
39105;BME280;46464;51.154;13.812;2023-03-04T11:16:54;52649.72;;;-146.96;88.50
39105;BME280;46464;51.154;13.812;2023-03-04T11:19:20;52655.84;;;-146.96;88.25
39105;BME280;46464;51.154;13.812;2023-03-04T11:21:47;52625.31;;;-146.96;87.72
39105;BME280;46464;51.154;13.812;2023-03-04T11:24:21;52668.03;;;-146.96;88.84
39105;BME280;46464;51.154;13.812;2023-03-04T11:26:59;52635.47;;;-146.96;88.10
39105;BME280;46464;51.154;13.812;2023-03-04T11:32:09;52653.81;;;-146.96;86.10
39105;BME280;46464;51.154;13.812;2023-03-04T11:34:45;52594.78;;;-146.96;85.03
39105;BME280;46464;51.154;13.812;2023-03-04T11:37:17;52625.31;;;-146.96;85.23
39105;BME280;46464;51.154;13.812;2023-03-04T11:39:48;52635.47;;;-146.96;83.97
39105;BME280;46464;51.154;13.812;2023-03-04T11:44:52;52657.88;;;-146.96;83.94
39105;BME280;46464;51.154;13.812;2023-03-04T11:47:21;52621.25;;;-146.96;84.59
39105;BME280;46464;51.154;13.812;2023-03-04T11:50:03;52639.56;;;-146.96;84.08
39105;BME280;46464;51.154;13.812;2023-03-04T12:03:22;52657.88;;;-146.96;83.17
39105;BME280;46464;51.154;13.812;2023-03-04T12:05:59;52649.72;;;-146.96;82.44
39105;BME280;46464;51.154;13.812;2023-03-04T12:08:37;52629.38;;;-146.96;81.54
39105;BME280;46464;51.154;13.812;2023-03-04T12:17:08;52641.59;;;-146.96;81.31
39105;BME280;46464;51.154;13.812;2023-03-04T12:22:46;52659.91;;;-146.96;81.18
39105;BME280;46464;51.154;13.812;2023-03-04T12:25:32;52635.47;;;-146.96;80.75
39105;BME280;46464;51.154;13.812;2023-03-04T12:36:17;52625.31;;;-146.96;79.35
39105;BME280;46464;51.154;13.812;2023-03-04T12:38:55;52639.56;;;-146.96;79.31
39105;BME280;46464;51.154;13.812;2023-03-04T12:41:29;52639.56;;;-146.96;79.14
39105;BME280;46464;51.154;13.812;2023-03-04T12:44:06;52653.81;;;-146.96;78.86
39105;BME280;46464;51.154;13.812;2023-03-04T12:46:47;52596.81;;;-146.96;78.82
39105;BME280;46464;51.154;13.812;2023-03-04T12:49:37;52598.84;;;-146.96;77.88
39105;BME280;46464;51.154;13.812;2023-03-04T12:52:20;52604.97;;;-146.96;76.79
39105;BME280;46464;51.154;13.812;2023-03-04T12:54:49;52611.06;;;-146.96;77.01
39105;BME280;46464;51.154;13.812;2023-03-04T12:57:22;52621.25;;;-146.96;77.16
39105;BME280;46464;51.154;13.812;2023-03-04T13:02:27;52621.25;;;-146.96;76.67
39105;BME280;46464;51.154;13.812;2023-03-04T13:10:27;52602.94;;;-146.96;76.13
39105;BME280;46464;51.154;13.812;2023-03-04T13:12:57;52598.84;;;-146.96;75.88
39105;BME280;46464;51.154;13.812;2023-03-04T13:17:55;52623.28;;;-146.96;75.91
39105;BME280;46464;51.154;13.812;2023-03-04T13:25:31;52633.44;;;-146.96;75.24
39105;BME280;46464;51.154;13.812;2023-03-04T13:38:22;52588.69;;;-146.96;74.03
39105;BME280;46464;51.154;13.812;2023-03-04T13:43:38;52582.56;;;-146.96;73.28
39105;BME280;46464;51.154;13.812;2023-03-04T14:01:33;52578.50;;;-146.96;72.50
39105;BME280;46464;51.154;13.812;2023-03-04T14:04:01;52613.09;;;-146.96;73.16
39105;BME280;46464;51.154;13.812;2023-03-04T14:06:28;52621.25;;;-146.96;73.16
39105;BME280;46464;51.154;13.812;2023-03-04T14:08:55;52596.81;;;-146.96;71.76
39105;BME280;46464;51.154;13.812;2023-03-04T14:11:35;52592.75;;;-146.96;71.36